Dades meteomassalio
Diari Summary for Marc 7, 2018 Units:  Metric    English   Both
« Previous Day
Next Day »
Diari Semanal Mensual Anual Personalitzat
  Maxima: Minima: Mijana:
Temperatura: -17.8 °C -16.8 °C -13.5 °C
Rosada: -17.8 °C -20.2 °C -17.4 °C
Humitat: Humidity % 39 % 63 %
Velocitat del vent: 0 km/h 0 km/h 24.6 km/h
Racha vent: 0 km/h - -
Vent:- - West
Pressio: 0 hPa 33992.1 hPa -
Pluja: 0 mm    
Historical Graphs
 
 
Tabular Data for Marc 7, 2018
Time Temperature Dew Point Pressure Wind Wind Speed Wind Gust Humidity Rainfall Rate (Hourly) solar Conditions
-17.8 °C -17.8 °C 0 hPa Calm     Humidity % 0 mm SolarRadiationWatts/m^2 W/m2 Conditions
00:03 -16.8 °C -20.2 °C 33992.1 hPa WNW 35.7 km/h 35.7 km/h 64 % 0 mm 0.0 W/m2 CLR
00:08 -16.8 °C -20.2 °C 33992.1 hPa WNW 36.2 km/h 36.2 km/h 64 % 0 mm 0.0 W/m2 CLR
00:13 -15.9 °C -19.3 °C 33992.1 hPa WNW 32.8 km/h 32.8 km/h 64 % 0 mm 0.0 W/m2 CLR
00:18 -15.3 °C -18.9 °C 33992.1 hPa West 32.8 km/h 32.8 km/h 63 % 0 mm 0.0 W/m2 CLR
00:23 -15.3 °C -18.8 °C 33992.1 hPa NW 23.8 km/h 23.8 km/h 64 % 0 mm 0.0 W/m2 CLR
00:28 -15.3 °C -18.8 °C 33992.1 hPa NW 29.8 km/h 29.8 km/h 64 % 0 mm 0.0 W/m2 CLR
00:33 -15.3 °C -18.9 °C 34005.6 hPa NW 26.9 km/h 26.9 km/h 63 % 0 mm 0.0 W/m2 CLR
00:39 -15.6 °C -19.1 °C 34005.6 hPa West 26.9 km/h 26.9 km/h 64 % 0 mm 0.0 W/m2 CLR
00:44 -15.6 °C -19.1 °C 34005.6 hPa WNW 32.8 km/h 32.8 km/h 64 % 0 mm 0.0 W/m2 CLR
00:49 -15.9 °C -19.2 °C 34005.6 hPa NW 23.8 km/h 23.8 km/h 65 % 0 mm 0.0 W/m2 CLR
00:54 -15.6 °C -18.8 °C 34005.6 hPa NW 26.9 km/h 26.9 km/h 66 % 0 mm 0.0 W/m2 CLR
00:59 -15.3 °C -18.5 °C 34005.6 hPa WNW 23.8 km/h 23.8 km/h 66 % 0 mm 0.0 W/m2 CLR
01:04 -15.3 °C -18.7 °C 34005.6 hPa WNW 26.9 km/h 26.9 km/h 65 % 0 mm 0.0 W/m2 CLR
01:09 -15.3 °C -18.8 °C 34015.8 hPa NW 29.8 km/h 29.8 km/h 64 % 0 mm 0.0 W/m2 CLR
01:14 -15.6 °C -19.1 °C 34015.8 hPa WNW 29.8 km/h 29.8 km/h 64 % 0 mm 0.0 W/m2 CLR
01:19 -15.6 °C -19.1 °C 34015.8 hPa NW 29.8 km/h 29.8 km/h 64 % 0 mm 0.0 W/m2 CLR
01:24 -15.3 °C -18.9 °C 34015.8 hPa NW 23.8 km/h 23.8 km/h 63 % 0 mm 0.0 W/m2 CLR
01:29 -15.3 °C -18.9 °C 34015.8 hPa NW 29.8 km/h 29.8 km/h 63 % 0 mm 0.0 W/m2 CLR
01:34 -15.3 °C -18.9 °C 34015.8 hPa WNW 25.9 km/h 25.9 km/h 63 % 0 mm 0.0 W/m2 CLR
01:39 -15 °C -18.6 °C 34015.8 hPa NNW 23.8 km/h 23.8 km/h 63 % 0 mm 0.0 W/m2 CLR
01:44 -14.7 °C -18.3 °C 34015.8 hPa NW 29.8 km/h 29.8 km/h 63 % 0 mm 0.0 W/m2 CLR
01:49 -14.1 °C -17.6 °C 34015.8 hPa NW 33.6 km/h 33.6 km/h 64 % 0 mm 0.0 W/m2 CLR
01:54 -13.8 °C -17.4 °C 34029.3 hPa NW 38.8 km/h 38.8 km/h 63 % 0 mm 0.0 W/m2 CLR
01:59 -13.4 °C -17 °C 34029.3 hPa NNW 35.7 km/h 35.7 km/h 64 % 0 mm 0.0 W/m2 CLR
02:04 -13.4 °C -17 °C 34029.3 hPa NW 29.8 km/h 29.8 km/h 64 % 0 mm 0.0 W/m2 CLR
02:09 -13.8 °C -17.2 °C 34029.3 hPa NW 17.9 km/h 17.9 km/h 65 % 0 mm 0.0 W/m2 CLR
02:14 -13.8 °C -17.2 °C 34029.3 hPa NW 20.9 km/h 20.9 km/h 65 % 0 mm 0.0 W/m2 CLR
02:19 -14.1 °C -17.3 °C 34029.3 hPa NW 20.9 km/h 20.9 km/h 66 % 0 mm 0.0 W/m2 CLR
02:24 -14.4 °C -17.7 °C 34039.5 hPa NW 17.9 km/h 17.9 km/h 66 % 0 mm 0.0 W/m2 CLR
02:29 -14.4 °C -17.7 °C 34039.5 hPa NNW 17.9 km/h 17.9 km/h 66 % 0 mm 0.0 W/m2 CLR
02:34 -14.7 °C -17.9 °C 34039.5 hPa NW 20.9 km/h 20.9 km/h 66 % 0 mm 0.0 W/m2 CLR
02:39 -14.7 °C -17.8 °C 34049.6 hPa NW 29.8 km/h 29.8 km/h 67 % 0 mm 0.0 W/m2 CLR
02:44 -14.4 °C -17.6 °C 34049.6 hPa NW 29.8 km/h 29.8 km/h 67 % 0 mm 0.0 W/m2 CLR
02:49 -14.4 °C -17.3 °C 34049.6 hPa NNW 32.8 km/h 32.8 km/h 69 % 0 mm 0.0 W/m2 CLR
02:54 -14.1 °C -16.9 °C 34063.2 hPa North 32.8 km/h 32.8 km/h 70 % 0 mm 0.0 W/m2 CLR
02:59 -14.4 °C -17.1 °C 34063.2 hPa North 36.2 km/h 36.2 km/h 71 % 0 mm 0.0 W/m2 CLR
03:04 -14.4 °C -16.9 °C 34063.2 hPa North 35.7 km/h 35.7 km/h 73 % 0 mm 0.0 W/m2 CLR
03:09 -14.4 °C -16.8 °C 34073.3 hPa North 41.7 km/h 41.7 km/h 74 % 0 mm 0.0 W/m2 CLR
03:14 -14.4 °C -16.7 °C 34073.3 hPa North 32.8 km/h 32.8 km/h 75 % 0 mm 0.0 W/m2 CLR
03:19 -14.4 °C -16.6 °C 34073.3 hPa NNW 35.7 km/h 35.7 km/h 76 % 0 mm 0.0 W/m2 CLR
03:24 -14.7 °C -16.8 °C 34073.3 hPa NW 29.8 km/h 29.8 km/h 77 % 0 mm 0.0 W/m2 CLR
03:29 -14.7 °C -16.8 °C 34073.3 hPa NNW 23.8 km/h 23.8 km/h 77 % 0 mm 0.0 W/m2 CLR
03:34 -14.7 °C -16.7 °C 34073.3 hPa NW 23.8 km/h 23.8 km/h 78 % 0 mm 0.0 W/m2 CLR
03:39 -15 °C -16.8 °C 34073.3 hPa NW 15 km/h 15 km/h 79 % 0 mm 0.0 W/m2 CLR
03:44 -15 °C -16.8 °C 34073.3 hPa NW 18.2 km/h 18.2 km/h 79 % 0 mm 0.0 W/m2 CLR
03:49 -15 °C -16.8 °C 34073.3 hPa NW 17.9 km/h 17.9 km/h 79 % 0 mm 0.0 W/m2 CLR
03:54 -15 °C -16.8 °C 34086.9 hPa NW 15.6 km/h 15.6 km/h 80 % 0 mm 0.0 W/m2 CLR
03:59 -15 °C -16.8 °C 34086.9 hPa NW 26.9 km/h 26.9 km/h 80 % 0 mm 0.0 W/m2 CLR
04:04 -15 °C -16.8 °C 34086.9 hPa NNW 29.8 km/h 29.8 km/h 79 % 0 mm 0.0 W/m2 CLR
04:09 -15 °C -16.9 °C 34086.9 hPa NW 29.8 km/h 29.8 km/h 78 % 0 mm 0.0 W/m2 CLR
04:14 -15 °C -16.9 °C 34086.9 hPa NW 32.8 km/h 32.8 km/h 78 % 0 mm 0.0 W/m2 CLR
04:19 -15 °C -16.9 °C 34086.9 hPa NNW 20.9 km/h 20.9 km/h 78 % 0 mm 0.0 W/m2 CLR
04:24 -15 °C -16.9 °C 34086.9 hPa NW 20.9 km/h 20.9 km/h 78 % 0 mm 0.0 W/m2 CLR
04:29 -15 °C -16.8 °C 34086.9 hPa NW 20.9 km/h 20.9 km/h 79 % 0 mm 0.0 W/m2 CLR
04:34 -15.3 °C -17.2 °C 34086.9 hPa WNW 17.9 km/h 17.9 km/h 79 % 0 mm 0.0 W/m2 CLR
04:39 -15.3 °C -17.2 °C 34086.9 hPa Calm     79 % 0 mm 0.0 W/m2 CLR
04:44 -15.3 °C -17.2 °C 34097 hPa Calm     79 % 0 mm 0.0 W/m2 CLR
04:49 -15.6 °C -17.3 °C 34097 hPa Calm     80 % 0 mm 0.0 W/m2 CLR
04:54 -15.6 °C -17.3 °C 34097 hPa Calm     81 % 0 mm 0.0 W/m2 CLR
04:59 -15.6 °C -17.2 °C 34097 hPa Calm     82 % 0 mm 0.0 W/m2 CLR
05:04 -15.6 °C -17.2 °C 34097 hPa Calm     82 % 0 mm 0.0 W/m2 CLR
05:09 -15.6 °C -17.2 °C 34097 hPa Calm     82 % 0 mm 0.0 W/m2 CLR
05:14 -15.3 °C -16.9 °C 34097 hPa Calm     82 % 0 mm 0.0 W/m2 CLR
05:19 -15 °C -16.6 °C 34107.2 hPa NW 20.9 km/h 20.9 km/h 82 % 0 mm 0.0 W/m2 CLR
05:24 -15 °C -16.6 °C 34107.2 hPa NW 15.6 km/h 15.6 km/h 82 % 0 mm 0.0 W/m2 CLR
05:29 -15 °C -16.6 °C 34107.2 hPa Calm     82 % 0 mm 0.0 W/m2 CLR
05:34 -15 °C -16.7 °C 34107.2 hPa NW 23.8 km/h 23.8 km/h 81 % 0 mm 0.0 W/m2 CLR
05:39 -15.3 °C -17.1 °C 34107.2 hPa NW 20.9 km/h 20.9 km/h 80 % 0 mm 0.0 W/m2 CLR
05:45 -15.3 °C -17.1 °C 34107.2 hPa NW 20.9 km/h 20.9 km/h 80 % 0 mm 0.0 W/m2 CLR
05:50 -15.3 °C -17 °C 34120.7 hPa NW 23.8 km/h 23.8 km/h 81 % 0 mm 0.0 W/m2 CLR
05:55 -15.3 °C -17 °C 34120.7 hPa NW 23.8 km/h 23.8 km/h 81 % 0 mm 0.0 W/m2 CLR
06:00 -15 °C -16.7 °C 34120.7 hPa NW 23.8 km/h 23.8 km/h 81 % 0 mm 0.0 W/m2 CLR
06:05 -15.3 °C -17 °C 34120.7 hPa WNW 18.2 km/h 18.2 km/h 81 % 0 mm 0.0 W/m2 CLR
06:10 -15.3 °C -17 °C 34120.7 hPa WNW 20.9 km/h 20.9 km/h 81 % 0 mm 0.0 W/m2 CLR
06:15 -15.3 °C -16.9 °C 34130.9 hPa WNW 26.9 km/h 26.9 km/h 82 % 0 mm 0.0 W/m2 CLR
06:20 -15.6 °C -17.2 °C 34130.9 hPa WNW 23.3 km/h 23.3 km/h 82 % 0 mm 0.0 W/m2 CLR
06:25 -15.6 °C -17.2 °C 34130.9 hPa WNW 20.9 km/h 20.9 km/h 82 % 0 mm 0.0 W/m2 CLR
06:30 -15.6 °C -17.2 °C 34130.9 hPa WNW 20.9 km/h 20.9 km/h 82 % 0 mm 0.0 W/m2 CLR
06:35 -15.9 °C -17.4 °C 34130.9 hPa WNW 20.9 km/h 20.9 km/h 83 % 0 mm 0.0 W/m2 CLR
06:40 -15.9 °C -17.4 °C 34144.4 hPa WNW 20.9 km/h 20.9 km/h 83 % 0 mm 0.0 W/m2 CLR
06:45 -15.9 °C -17.4 °C 34144.4 hPa NW 23.8 km/h 23.8 km/h 83 % 0 mm 0.0 W/m2 CLR
06:50 -15.9 °C -17.4 °C 34144.4 hPa WNW 23.8 km/h 23.8 km/h 83 % 0 mm 0.0 W/m2 CLR
06:55 -15.9 °C -17.4 °C 34144.4 hPa NW 28.5 km/h 28.5 km/h 82 % 0 mm 0.0 W/m2 CLR
07:00 -15.9 °C -17.6 °C 34154.6 hPa NW 23.8 km/h 23.8 km/h 81 % 0 mm 0.0 W/m2 CLR
07:05 -16.2 °C -17.9 °C 34154.6 hPa NW 23.8 km/h 23.8 km/h 80 % 0 mm 0.0 W/m2 CLR
07:10 -16.2 °C -17.9 °C 34164.7 hPa NW 23.8 km/h 23.8 km/h 80 % 0 mm 0.0 W/m2 CLR
07:15 -15.9 °C -17.7 °C 34164.7 hPa NW 26.9 km/h 26.9 km/h 80 % 0 mm 0.0 W/m2 OVC
07:20 -15.9 °C -17.7 °C 34164.7 hPa WNW 29.8 km/h 29.8 km/h 79 % 0 mm 0.0 W/m2 OVC
07:25 -15.6 °C -17.4 °C 34178.3 hPa NW 29.8 km/h 29.8 km/h 79 % 0 mm 5.0 W/m2 OVC
07:30 -15.6 °C -17.6 °C 34178.3 hPa NNW 29.8 km/h 29.8 km/h 78 % 0 mm 7.0 W/m2 BKN
07:35 -15.3 °C -17.3 °C 34178.3 hPa NNW 29.8 km/h 29.8 km/h 78 % 0 mm 9.0 W/m2 BKN
07:40 -15.3 °C -17.3 °C 34178.3 hPa NW 32.8 km/h 32.8 km/h 78 % 0 mm 11.0 W/m2 BKN
07:45 -15.3 °C -17.3 °C 34178.3 hPa NNW 32.8 km/h 32.8 km/h 77 % 0 mm 12.0 W/m2 BKN
07:50 -15.3 °C -17.4 °C 34188.4 hPa NNW 26.9 km/h 26.9 km/h 76 % 0 mm 16.0 W/m2 BKN
07:55 -15.3 °C -17.4 °C 34188.4 hPa NW 38.8 km/h 38.8 km/h 76 % 0 mm 18.0 W/m2 BKN
08:00 -15.3 °C -17.6 °C 34198.6 hPa NW 29.8 km/h 29.8 km/h 75 % 0 mm 18.0 W/m2 BKN
08:05 -15.3 °C -17.6 °C 34198.6 hPa NW 29.8 km/h 29.8 km/h 75 % 0 mm 44.0 W/m2 BKN
08:10 -15.3 °C -17.7 °C 34198.6 hPa NW 38.8 km/h 38.8 km/h 74 % 0 mm 60.0 W/m2 SCT
08:15 -15 °C -17.4 °C 34198.6 hPa NNW 29.8 km/h 29.8 km/h 73 % 0 mm 56.0 W/m2 SCT
08:20 -15 °C -17.4 °C 34212.1 hPa NNW 29.8 km/h 29.8 km/h 73 % 0 mm 90.0 W/m2 CLR
08:25 -15 °C -17.6 °C 34212.1 hPa NNW 29.8 km/h 29.8 km/h 72 % 0 mm 90.0 W/m2 FEW
08:30 -15 °C -17.7 °C 34212.1 hPa NNW 31.1 km/h 31.1 km/h 71 % 0 mm 123.0 W/m2 CLR
08:35 -14.7 °C -17.4 °C 34222.3 hPa NNW 26.9 km/h 26.9 km/h 71 % 0 mm 42.0 W/m2 CLR
08:40 -14.7 °C -17.5 °C 34222.3 hPa NNW 26.9 km/h 26.9 km/h 70 % 0 mm 30.0 W/m2 SCT
08:45 -14.7 °C -17.6 °C 34222.3 hPa NW 32.8 km/h 32.8 km/h 69 % 0 mm 176.0 W/m2 SCT
08:50 -14.7 °C -17.6 °C 34235.8 hPa North 23.8 km/h 23.8 km/h 69 % 0 mm 206.0 W/m2 FEW
08:55 -14.7 °C -17.7 °C 34235.8 hPa WNW 29.8 km/h 29.8 km/h 68 % 0 mm 225.0 W/m2 CLR
09:00 -14.4 °C -17.4 °C 34246 hPa NW 47.6 km/h 47.6 km/h 68 % 0 mm 243.0 W/m2 CLR
09:05 -14.1 °C -17.3 °C 34246 hPa NW 31.1 km/h 31.1 km/h 67 % 0 mm 260.0 W/m2 CLR
09:10 -14.1 °C -17.3 °C 34246 hPa NW 32.8 km/h 32.8 km/h 66 % 0 mm 278.0 W/m2 CLR
09:15 -14.1 °C -17.3 °C 34256.2 hPa NW 35.7 km/h 35.7 km/h 66 % 0 mm 294.0 W/m2 CLR
09:20 -14.1 °C -17.4 °C 34256.2 hPa WNW 29.8 km/h 29.8 km/h 65 % 0 mm 309.0 W/m2 CLR
09:25 -13.8 °C -17.2 °C 34256.2 hPa WNW 32.8 km/h 32.8 km/h 65 % 0 mm 325.0 W/m2 CLR
09:30 -13.8 °C -17.1 °C 34256.2 hPa NW 38.8 km/h 38.8 km/h 66 % 0 mm 343.0 W/m2 CLR
09:35 -13.4 °C -16.8 °C 34269.7 hPa WNW 29.8 km/h 29.8 km/h 66 % 0 mm 357.0 W/m2 CLR
09:40 -13.4 °C -17.3 °C 34269.7 hPa WNW 38.8 km/h 38.8 km/h 62 % 0 mm 373.0 W/m2 CLR
09:45 -13.4 °C -16.9 °C 34269.7 hPa NNW 29.8 km/h 29.8 km/h 65 % 0 mm 387.0 W/m2 CLR
09:50 -13.4 °C -17.1 °C 34279.9 hPa NW 38.8 km/h 38.8 km/h 63 % 0 mm 404.0 W/m2 CLR
09:55 -13.2 °C -16.8 °C 34279.9 hPa NW 47.6 km/h 47.6 km/h 63 % 0 mm 418.0 W/m2 CLR
10:00 -13.2 °C -17.1 °C 34279.9 hPa North 50.7 km/h 50.7 km/h 61 % 0 mm 432.0 W/m2 CLR
10:05 -13.2 °C -17 °C 34293.4 hPa NNW 53.6 km/h 53.6 km/h 62 % 0 mm 446.0 W/m2 CLR
10:10 -12.8 °C -16.7 °C 34293.4 hPa North 46.7 km/h 46.7 km/h 62 % 0 mm 459.0 W/m2 CLR
10:15 -12.8 °C -16.8 °C 34293.4 hPa NNW 44.7 km/h 44.7 km/h 61 % 0 mm 475.0 W/m2 CLR
10:20 -12.8 °C -16.9 °C 34293.4 hPa NNW 53.6 km/h 53.6 km/h 60 % 0 mm 489.0 W/m2 CLR
10:25 -12.8 °C -16.9 °C 34293.4 hPa NW 50.7 km/h 50.7 km/h 60 % 0 mm 499.0 W/m2 CLR
10:30 -12.8 °C -17.2 °C 34293.4 hPa NNW 50.7 km/h 50.7 km/h 58 % 0 mm 515.0 W/m2 CLR
10:35 -12.6 °C -16.8 °C 34303.6 hPa NNW 53.6 km/h 53.6 km/h 59 % 0 mm 527.0 W/m2 CLR
10:40 -12.2 °C -16.5 °C 34303.6 hPa NNW 57 km/h 57 km/h 59 % 0 mm 540.0 W/m2 CLR
10:45 -12.2 °C -16.5 °C 34303.6 hPa NNW 53.6 km/h 53.6 km/h 59 % 0 mm 552.0 W/m2 CLR
10:50 -12.2 °C -16.5 °C 34303.6 hPa NNW 50.7 km/h 50.7 km/h 59 % 0 mm 564.0 W/m2 CLR
10:55 -11.9 °C -16.6 °C 34303.6 hPa North 54.4 km/h 54.4 km/h 56 % 0 mm 578.0 W/m2 CLR
11:00 -11.9 °C -16.4 °C 34303.6 hPa NNW 50.7 km/h 50.7 km/h 57 % 0 mm 587.0 W/m2 CLR
11:05 -11.9 °C -16.7 °C 34303.6 hPa NNW 56.6 km/h 56.6 km/h 55 % 0 mm 598.0 W/m2 CLR
11:10 -11.6 °C -16.2 °C 34303.6 hPa North 47.6 km/h 47.6 km/h 57 % 0 mm 608.0 W/m2 CLR
11:15 -11.6 °C -16.2 °C 34303.6 hPa NW 44.7 km/h 44.7 km/h 57 % 0 mm 619.0 W/m2 CLR
11:20 -11.6 °C -16.3 °C 34303.6 hPa NNW 38.8 km/h 38.8 km/h 56 % 0 mm 628.0 W/m2 CLR
11:25 -11.3 °C -16 °C 34303.6 hPa NW 56.6 km/h 56.6 km/h 56 % 0 mm 636.0 W/m2 CLR
11:30 -11.6 °C -16.4 °C 34313.7 hPa NNW 51.8 km/h 51.8 km/h 55 % 0 mm 645.0 W/m2 CLR
11:35 -11.3 °C -16.2 °C 34313.7 hPa North 50.7 km/h 50.7 km/h 55 % 0 mm 652.0 W/m2 CLR
11:36 -11.3 °C -16.2 °C 34313.7 hPa NNW 50.7 km/h 50.7 km/h 55 % 0 mm 654.0 W/m2 CLR
11:41 -11.3 °C -16.2 °C 34313.7 hPa North 53.6 km/h 53.6 km/h 55 % 0 mm 663.0 W/m2 CLR
11:46 -11.3 °C -16 °C 34313.7 hPa NW 51.8 km/h 51.8 km/h 56 % 0 mm 670.0 W/m2 CLR
11:51 -11.3 °C -16.3 °C 34313.7 hPa NNW 50.7 km/h 50.7 km/h 54 % 0 mm 680.0 W/m2 CLR
11:56 -11.3 °C -16.2 °C 34313.7 hPa NNW 47.6 km/h 47.6 km/h 55 % 0 mm 693.0 W/m2 CLR
12:01 -11 °C -15.9 °C 34313.7 hPa NNW 53.6 km/h 53.6 km/h 55 % 0 mm 696.0 W/m2 CLR
12:06 -11.3 °C -16.2 °C 34313.7 hPa NW 50.7 km/h 50.7 km/h 55 % 0 mm 700.0 W/m2 CLR
12:11 -11 °C -16.2 °C 34313.7 hPa NW 50.7 km/h 50.7 km/h 53 % 0 mm 705.0 W/m2 CLR
12:16 -11 °C -16.2 °C 34313.7 hPa NNW 29.8 km/h 29.8 km/h 53 % 0 mm 708.0 W/m2 CLR
12:21 -11 °C -16.3 °C 34313.7 hPa NW 50.7 km/h 50.7 km/h 52 % 0 mm 724.0 W/m2 CLR
12:26 -11 °C -16.4 °C 34313.7 hPa NNW 41.7 km/h 41.7 km/h 51 % 0 mm 724.0 W/m2 CLR
12:31 -10.7 °C -16.2 °C 34313.7 hPa North 65.5 km/h 65.5 km/h 51 % 0 mm 719.0 W/m2 CLR
12:36 -10.7 °C -16.3 °C 34303.6 hPa North 59.5 km/h 59.5 km/h 50 % 0 mm 726.0 W/m2 CLR
12:41 -10.7 °C -16.3 °C 34303.6 hPa NNE 62.6 km/h 62.6 km/h 50 % 0 mm 728.0 W/m2 CLR
12:46 -10.7 °C -16.5 °C 34303.6 hPa North 50.7 km/h 50.7 km/h 49 % 0 mm 731.0 W/m2 CLR
12:51 -11 °C -16.4 °C 34303.6 hPa NNW 47.6 km/h 47.6 km/h 51 % 0 mm 729.0 W/m2 CLR
12:56 -10.7 °C -16.3 °C 34303.6 hPa North 59.5 km/h 59.5 km/h 50 % 0 mm 726.0 W/m2 CLR
13:01 -10.7 °C -16.5 °C 34313.7 hPa North 50.7 km/h 50.7 km/h 49 % 0 mm 728.0 W/m2 CLR
13:06 -10.7 °C -16.5 °C 34303.6 hPa NNW 53.6 km/h 53.6 km/h 49 % 0 mm 708.0 W/m2 CLR
13:11 -10.4 °C -16.6 °C 34313.7 hPa NNW 68.6 km/h 68.6 km/h 47 % 0 mm 731.0 W/m2 CLR
13:16 -10.7 °C -16.8 °C 34313.7 hPa NNE 41.7 km/h 41.7 km/h 47 % 0 mm 737.0 W/m2 CLR
13:21 -10.7 °C -16.6 °C 34303.6 hPa North 59.5 km/h 59.5 km/h 48 % 0 mm 738.0 W/m2 CLR
13:26 -10.7 °C -16.5 °C 34303.6 hPa North 53.6 km/h 53.6 km/h 49 % 0 mm 737.0 W/m2 CLR
13:31 -10.7 °C -16.6 °C 34303.6 hPa NNW 50.7 km/h 50.7 km/h 48 % 0 mm 738.0 W/m2 CLR
13:36 -10.4 °C -16.3 °C 34293.4 hPa North 47.6 km/h 47.6 km/h 48 % 0 mm 729.0 W/m2 CLR
13:41 -10.7 °C -16.6 °C 34293.4 hPa NNW 47.6 km/h 47.6 km/h 48 % 0 mm 726.0 W/m2 CLR
13:46 -10.7 °C -16.8 °C 34293.4 hPa NNE 32.8 km/h 32.8 km/h 47 % 0 mm 729.0 W/m2 CLR
13:51 -10.7 °C -16.8 °C 34293.4 hPa North 50.7 km/h 50.7 km/h 47 % 0 mm 740.0 W/m2 CLR
13:56 -10.7 °C -16.8 °C 34293.4 hPa North 46.7 km/h 46.7 km/h 47 % 0 mm 682.0 W/m2 CLR
14:01 -10.7 °C -16.8 °C 34293.4 hPa North 53.6 km/h 53.6 km/h 47 % 0 mm 712.0 W/m2 CLR
14:06 -10.4 °C -16.6 °C 34293.4 hPa NNW 32.8 km/h 32.8 km/h 47 % 0 mm 705.0 W/m2 CLR
14:11 -10.4 °C -16.7 °C 34293.4 hPa North 38.8 km/h 38.8 km/h 46 % 0 mm 703.0 W/m2 CLR
14:16 -10.1 °C -16.2 °C 34293.4 hPa NE 59.5 km/h 59.5 km/h 47 % 0 mm 703.0 W/m2 CLR
14:21 -10.7 °C -16.6 °C 34293.4 hPa North 41.7 km/h 41.7 km/h 48 % 0 mm 698.0 W/m2 CLR
14:26 -10.7 °C -16.8 °C 34293.4 hPa North 35.7 km/h 35.7 km/h 47 % 0 mm 693.0 W/m2 CLR
14:31 -10.4 °C -16.7 °C 34279.9 hPa North 35.7 km/h 35.7 km/h 46 % 0 mm 686.0 W/m2 CLR
14:36 -10.4 °C -17.1 °C 34279.9 hPa North 53.6 km/h 53.6 km/h 44 % 0 mm 680.0 W/m2 CLR
14:41 -10.4 °C -16.9 °C 34279.9 hPa NNW 46.7 km/h 46.7 km/h 45 % 0 mm 671.0 W/m2 CLR
14:46 -10.4 °C -17.1 °C 34293.4 hPa NNW 50.7 km/h 50.7 km/h 44 % 0 mm 666.0 W/m2 CLR
14:51 -10.4 °C -17.1 °C 34279.9 hPa NW 33.6 km/h 33.6 km/h 44 % 0 mm 657.0 W/m2 CLR
14:56 -10.1 °C -16.8 °C 34279.9 hPa NNW 35.7 km/h 35.7 km/h 44 % 0 mm 647.0 W/m2 CLR
15:01 -10.4 °C -16.9 °C 34279.9 hPa NW 35.7 km/h 35.7 km/h 45 % 0 mm 638.0 W/m2 CLR
15:06 -10.1 °C -16.9 °C 34279.9 hPa North 29.8 km/h 29.8 km/h 43 % 0 mm 628.0 W/m2 CLR
15:11 -10.1 °C -16.8 °C 34279.9 hPa North 50.7 km/h 50.7 km/h 44 % 0 mm 621.0 W/m2 CLR
15:16 -10.1 °C -16.9 °C 34293.4 hPa North 29.8 km/h 29.8 km/h 43 % 0 mm 608.0 W/m2 CLR
15:21 -10.1 °C -16.8 °C 34293.4 hPa NNW 26.9 km/h 26.9 km/h 44 % 0 mm 598.0 W/m2 CLR
15:26 -10.4 °C -17.1 °C 34303.6 hPa North 29.8 km/h 29.8 km/h 44 % 0 mm 589.0 W/m2 CLR
15:31 -10.4 °C -17.4 °C 34303.6 hPa WNW 35.7 km/h 35.7 km/h 42 % 0 mm 580.0 W/m2 CLR
15:36 -10.1 °C -17.1 °C 34293.4 hPa NNW 29.8 km/h 29.8 km/h 42 % 0 mm 568.0 W/m2 CLR
15:41 -10.1 °C -17.1 °C 34293.4 hPa NW 44.7 km/h 44.7 km/h 42 % 0 mm 559.0 W/m2 CLR
15:46 -10.1 °C -17.3 °C 34293.4 hPa NNW 29.8 km/h 29.8 km/h 41 % 0 mm 545.0 W/m2 CLR
15:51 -10.1 °C -16.9 °C 34279.9 hPa North 32.8 km/h 32.8 km/h 43 % 0 mm 536.0 W/m2 CLR
15:56 -10.1 °C -17.5 °C 34279.9 hPa NNW 41.7 km/h 41.7 km/h 40 % 0 mm 524.0 W/m2 CLR
16:01 -10.1 °C -17.1 °C 34279.9 hPa North 29.8 km/h 29.8 km/h 42 % 0 mm 508.0 W/m2 CLR
16:06 -10.1 °C -17.5 °C 34279.9 hPa North 35.7 km/h 35.7 km/h 40 % 0 mm 503.0 W/m2 CLR
16:11 -10.1 °C -17.7 °C 34279.9 hPa NW 18.2 km/h 18.2 km/h 39 % 0 mm 487.0 W/m2 CLR
16:16 -10.1 °C -17.1 °C 34279.9 hPa NNW 26.9 km/h 26.9 km/h 42 % 0 mm 478.0 W/m2 CLR
16:21 -10.1 °C -17.7 °C 34293.4 hPa NNW 31.1 km/h 31.1 km/h 39 % 0 mm 441.0 W/m2 CLR
16:26 -10.1 °C -17.7 °C 34293.4 hPa North 26.9 km/h 26.9 km/h 39 % 0 mm 434.0 W/m2 CLR
16:31 -10.1 °C -17.3 °C 34293.4 hPa NNW 38.8 km/h 38.8 km/h 41 % 0 mm 408.0 W/m2 CLR
16:36 -10.1 °C -17.7 °C 34293.4 hPa NNE 31.1 km/h 31.1 km/h 39 % 0 mm 413.0 W/m2 CLR
16:41 -10.1 °C -17.5 °C 34279.9 hPa NNW 33.6 km/h 33.6 km/h 40 % 0 mm 401.0 W/m2 CLR
16:46 -10.1 °C -17.7 °C 34293.4 hPa NNE 25.9 km/h 25.9 km/h 39 % 0 mm 376.0 W/m2 CLR
16:51 -10.1 °C -17.7 °C 34293.4 hPa NNE 32.8 km/h 32.8 km/h 39 % 0 mm 369.0 W/m2 CLR
16:56 -10.1 °C -17.5 °C 34293.4 hPa North 29.8 km/h 29.8 km/h 40 % 0 mm 350.0 W/m2 CLR
17:01 -10.1 °C -17.5 °C 34293.4 hPa North 20.9 km/h 20.9 km/h 40 % 0 mm 329.0 W/m2 CLR
17:06 -10.4 °C -17.8 °C 34293.4 hPa North 23.3 km/h 23.3 km/h 40 % 0 mm 320.0 W/m2 CLR
17:11 -10.4 °C -17.6 °C 34293.4 hPa NE 26.9 km/h 26.9 km/h 41 % 0 mm 302.0 W/m2 CLR
17:16 -10.4 °C -17.6 °C 34293.4 hPa NNE 23.8 km/h 23.8 km/h 41 % 0 mm 239.0 W/m2 CLR
17:21 -10.4 °C -17.6 °C 34293.4 hPa NW 20.9 km/h 20.9 km/h 41 % 0 mm 248.0 W/m2 CLR
17:26 -10.4 °C -17.6 °C 34293.4 hPa North 26.9 km/h 26.9 km/h 41 % 0 mm 230.0 W/m2 CLR
17:31 -10.7 °C -17.9 °C 34293.4 hPa North 11.9 km/h   41 % 0 mm 185.0 W/m2 CLR
17:36 -10.7 °C -18.1 °C 34293.4 hPa NNW 20.9 km/h 20.9 km/h 40 % 0 mm 153.0 W/m2 CLR
17:41 -10.7 °C -17.9 °C 34303.6 hPa Calm     41 % 0 mm 190.0 W/m2 CLR
17:46 -10.7 °C -18.1 °C 34303.6 hPa NNE 18.2 km/h 18.2 km/h 40 % 0 mm 116.0 W/m2 CLR
17:51 -11 °C -17.9 °C 34303.6 hPa NNE 3.1 km/h 3.1 km/h 42 % 0 mm 146.0 W/m2 CLR
17:56 -11 °C -18.2 °C 34303.6 hPa NNE 9 km/h   41 % 0 mm 118.0 W/m2 CLR
18:01 -11 °C -17.9 °C 34303.6 hPa NNE 20.9 km/h 20.9 km/h 42 % 0 mm 93.0 W/m2 CLR
18:06 -11.3 °C -18.2 °C 34303.6 hPa NNE 3.1 km/h   42 % 0 mm 69.0 W/m2 FEW
18:11 -11.3 °C -18.2 °C 34303.6 hPa Calm     42 % 0 mm 54.0 W/m2 SCT
18:16 -11.3 °C -18.2 °C 34303.6 hPa Calm     42 % 0 mm 39.0 W/m2 BKN
18:21 -11.6 °C -18.5 °C 34303.6 hPa Calm     42 % 0 mm 32.0 W/m2 BKN
18:26 -11.6 °C -17.8 °C 34303.6 hPa Calm     46 % 0 mm 26.0 W/m2 BKN
18:31 -11.9 °C -18.4 °C 34303.6 hPa Calm     44 % 0 mm 23.0 W/m2 BKN
18:36 -12.2 °C -18.7 °C 34303.6 hPa Calm     44 % 0 mm 18.0 W/m2 BKN
18:41 -12.6 °C -19 °C 34303.6 hPa Calm     44 % 0 mm 14.0 W/m2 BKN
18:46 -12.8 °C -18.9 °C 34303.6 hPa Calm     46 % 0 mm 11.0 W/m2 BKN
18:51 -13.2 °C -19.1 °C 34303.6 hPa Calm     47 % 0 mm 5.0 W/m2 OVC
18:56 -13.4 °C -19.2 °C 34303.6 hPa Calm     48 % 0 mm 0.0 W/m2 OVC
19:01 -13.4 °C -19.2 °C 34303.6 hPa Calm     48 % 0 mm 0.0 W/m2 CLR
19:06 -13.8 °C -19.2 °C 34303.6 hPa Calm     50 % 0 mm 0.0 W/m2 CLR
19:11 -14.1 °C -19.2 °C 34313.7 hPa Calm     52 % 0 mm 0.0 W/m2 CLR
19:17 -14.1 °C -19.3 °C 34313.7 hPa Calm     51 % 0 mm 0.0 W/m2 CLR
19:22 -14.1 °C -18.7 °C 34313.7 hPa Calm     55 % 0 mm 0.0 W/m2 CLR
19:27 -14.1 °C -18.7 °C 34313.7 hPa Calm     55 % 0 mm 0.0 W/m2 CLR
19:32 -14.1 °C -18.3 °C 34313.7 hPa Calm     58 % 0 mm 0.0 W/m2 CLR
19:37 -14.1 °C -17.9 °C 34313.7 hPa Calm     61 % 0 mm 0.0 W/m2 CLR
19:42 -14.1 °C -17.8 °C 34327.3 hPa Calm     62 % 0 mm 0.0 W/m2 CLR
19:47 -14.4 °C -18 °C 34327.3 hPa Calm     63 % 0 mm 0.0 W/m2 CLR
19:52 -14.4 °C -17.9 °C 34327.3 hPa Calm     64 % 0 mm 0.0 W/m2 CLR
19:57 -14.4 °C -17.7 °C 34327.3 hPa Calm     66 % 0 mm 0.0 W/m2 CLR
20:02 -14.7 °C -17.8 °C 34327.3 hPa Calm     67 % 0 mm 0.0 W/m2 CLR
20:07 -14.7 °C -17.6 °C 34327.3 hPa Calm     69 % 0 mm 0.0 W/m2 CLR
20:12 -14.7 °C -17.6 °C 34327.3 hPa Calm     69 % 0 mm 0.0 W/m2 CLR
20:17 -14.7 °C -17.4 °C 34327.3 hPa Calm     71 % 0 mm 0.0 W/m2 CLR
20:22 -14.7 °C -17.4 °C 34337.4 hPa Calm     71 % 0 mm 0.0 W/m2 CLR
20:27 -14.7 °C -17.5 °C 34337.4 hPa Calm     70 % 0 mm 0.0 W/m2 CLR
20:32 -14.7 °C -17.4 °C 34327.3 hPa Calm     71 % 0 mm 0.0 W/m2 CLR
20:37 -14.7 °C -17.3 °C 34327.3 hPa Calm     72 % 0 mm 0.0 W/m2 CLR
20:42 -14.7 °C -17.2 °C 34337.4 hPa Calm     73 % 0 mm 0.0 W/m2 CLR
20:47 -14.7 °C -17.2 °C 34337.4 hPa Calm     73 % 0 mm 0.0 W/m2 CLR
20:52 -14.7 °C -17.3 °C 34337.4 hPa Calm     72 % 0 mm 0.0 W/m2 CLR
20:57 -14.7 °C -17.1 °C 34337.4 hPa Calm     74 % 0 mm 0.0 W/m2 CLR
21:02 -14.7 °C -17.1 °C 34337.4 hPa Calm     74 % 0 mm 0.0 W/m2 CLR
21:07 -14.7 °C -17.2 °C 34337.4 hPa Calm     73 % 0 mm 0.0 W/m2 CLR
21:12 -14.7 °C -17.2 °C 34337.4 hPa Calm     73 % 0 mm 0.0 W/m2 CLR
21:17 -14.7 °C -17.2 °C 34337.4 hPa Calm     73 % 0 mm 0.0 W/m2 CLR
21:22 -14.7 °C -17 °C 34327.3 hPa Calm     75 % 0 mm 0.0 W/m2 CLR
21:27 -14.7 °C -17 °C 34327.3 hPa Calm     75 % 0 mm 0.0 W/m2 CLR
21:32 -15 °C -17.2 °C 34327.3 hPa Calm     76 % 0 mm 0.0 W/m2 CLR
21:37 -15 °C -17.3 °C 34327.3 hPa Calm     75 % 0 mm 0.0 W/m2 CLR
21:42 -15 °C -17.4 °C 34327.3 hPa Calm     74 % 0 mm 0.0 W/m2 CLR
21:47 -15 °C -17.3 °C 34327.3 hPa Calm     75 % 0 mm 0.0 W/m2 CLR
21:52 -15.3 °C -17.4 °C 34337.4 hPa Calm     76 % 0 mm 0.0 W/m2 CLR
21:57 -15.3 °C -17.4 °C 34337.4 hPa Calm     76 % 0 mm 0.0 W/m2 CLR
22:02 -15.3 °C -17.4 °C 34337.4 hPa Calm     76 % 0 mm 0.0 W/m2 CLR
22:07 -15.3 °C -17.6 °C 34337.4 hPa Calm     75 % 0 mm 0.0 W/m2 CLR
22:12 -15.3 °C -17.4 °C 34327.3 hPa Calm     76 % 0 mm 0.0 W/m2 CLR
22:17 -15.3 °C -17.4 °C 34337.4 hPa Calm     76 % 0 mm 0.0 W/m2 CLR
22:22 -15.3 °C -17.4 °C 34337.4 hPa Calm     76 % 0 mm 0.0 W/m2 CLR
22:27 -15.3 °C -17.3 °C 34327.3 hPa Calm     77 % 0 mm 0.0 W/m2 CLR
22:32 -15.3 °C -17.4 °C 34327.3 hPa Calm     76 % 0 mm 0.0 W/m2 CLR
22:37 -15.6 °C -17.7 °C 34337.4 hPa Calm     76 % 0 mm 0.0 W/m2 CLR
22:42 -15.6 °C -17.7 °C 34327.3 hPa Calm     76 % 0 mm 0.0 W/m2 CLR
22:47 -15.6 °C -17.7 °C 34327.3 hPa Calm     76 % 0 mm 0.0 W/m2 CLR
22:52 -15.6 °C -17.7 °C 34327.3 hPa Calm     76 % 0 mm 0.0 W/m2 CLR
22:57 -15.9 °C -18.1 °C 34327.3 hPa Calm     76 % 0 mm 0.0 W/m2 CLR
23:02 -15.9 °C -17.9 °C 34327.3 hPa Calm     78 % 0 mm 0.0 W/m2 CLR
23:07 -15.6 °C -17.4 °C 34327.3 hPa Calm     79 % 0 mm 0.0 W/m2 CLR
23:12 -15.6 °C -17.3 °C 34337.4 hPa Calm     80 % 0 mm 0.0 W/m2 CLR
23:17 -15.9 °C -17.6 °C 34337.4 hPa Calm     81 % 0 mm 0.0 W/m2 CLR
23:22 -15.9 °C -17.6 °C 34337.4 hPa Calm     81 % 0 mm 0.0 W/m2 CLR
23:27 -15.9 °C -17.4 °C 34337.4 hPa Calm     82 % 0 mm 0.0 W/m2 CLR
23:32 -15.9 °C -17.4 °C 34337.4 hPa Calm     82 % 0 mm 0.0 W/m2 CLR
23:37 -15.9 °C -17.6 °C 34337.4 hPa Calm     81 % 0 mm 0.0 W/m2 CLR
23:42 -15.9 °C -17.6 °C 34327.3 hPa Calm     81 % 0 mm 0.0 W/m2 CLR
23:47 -15.9 °C -17.4 °C 34327.3 hPa Calm     82 % 0 mm 0.0 W/m2 CLR
23:52 -15.9 °C -17.4 °C 34327.3 hPa Calm     83 % 0 mm 0.0 W/m2 CLR
23:57 -16.2 °C -17.7 °C 34313.7 hPa Calm     83 % 0 mm 0.0 W/m2 CLR
Lo Temps de Massalio
Compliments of Weather Underground - 1.25 mb